Time;durP1;ratioP1;P1;durP2;ratioP2;P2;SDS_P1;SDS_P2;PMS_P1;PMS_P2;Temp;Humidity;BMP_temperature;BMP_pressure;BME280_temperature;BME280_humidity;BME280_pressure;Samples;Min_cycle;Max_cycle;Signal;HPM_P1;HPM_P2
2023/05/20 00:00:07;;;;;;;6.63;4.22;;;;;;;;;;5051655;28;20087;-66
2023/05/20 00:02:34;;;;;;;6.70;4.30;;;;;;;;;;5044592;28;20099;-67
2023/05/20 00:05:01;;;;;;;6.78;4.35;;;;;;;;;;5031666;28;20049;-67
2023/05/20 00:07:28;;;;;;;5.88;4.07;;;;;;;;;;5031655;28;20061;-67
2023/05/20 00:09:54;;;;;;;6.60;4.55;;;;;;;;;;5031504;28;20092;-67
2023/05/20 00:12:21;;;;;;;6.05;4.30;;;;;;;;;;5031551;28;20057;-66
2023/05/20 00:14:49;;;;;;;6.00;4.45;;;;;;;;;;5031533;28;20057;-67
2023/05/20 00:17:16;;;;;;;5.10;4.00;;;;;;;;;;5031671;28;20053;-66
2023/05/20 00:19:43;;;;;;;5.93;4.13;;;;;;;;;;5031432;28;20053;-67
2023/05/20 00:22:10;;;;;;;5.22;3.95;;;;;;;;;;5031414;28;20057;-67
2023/05/20 00:24:37;;;;;;;6.13;4.45;;;;;;;;;;5031608;28;20491;-67
2023/05/20 00:27:04;;;;;;;7.28;4.65;;;;;;;;;;5031597;28;20104;-66
2023/05/20 00:29:31;;;;;;;5.57;4.18;;;;;;;;;;5031804;28;20099;-67
2023/05/20 00:31:59;;;;;;;7.07;4.22;;;;;;;;;;5031162;28;20119;-66
2023/05/20 00:34:26;;;;;;;6.78;4.60;;;;;;;;;;5031874;28;20140;-66
2023/05/20 00:36:52;;;;;;;8.00;4.53;;;;;;;;;;5031613;28;20057;-66
2023/05/20 00:39:19;;;;;;;5.70;4.03;;;;;;;;;;5031756;28;20053;-66
2023/05/20 00:41:46;;;;;;;5.18;4.30;;;;;;;;;;5031418;28;20041;-66
2023/05/20 00:44:13;;;;;;;5.75;4.50;;;;;;;;;;5031776;28;20053;-66
2023/05/20 00:46:40;;;;;;;6.35;4.38;;;;;;;;;;5031256;28;20053;-66
2023/05/20 00:49:08;;;;;;;7.40;4.70;;;;;;;;;;5031396;28;20548;-66
2023/05/20 00:51:35;;;;;;;7.30;5.10;;;;;;;;;;5031200;28;20518;-68
2023/05/20 00:54:03;;;;;;;7.90;5.03;;;;;;;;;;5031335;28;20053;-67
2023/05/20 00:56:29;;;;;;;7.30;4.97;;;;;;;;;;5032912;28;20479;-67
2023/05/20 00:58:57;;;;;;;6.70;4.35;;;;;;;;;;5035294;28;20471;-67
2023/05/20 01:01:24;;;;;;;7.03;4.85;;;;;;;;;;5035064;28;20054;-66
2023/05/20 01:03:52;;;;;;;7.15;4.97;;;;;;;;;;5052159;28;20166;-67
2023/05/20 01:06:20;;;;;;;7.13;4.97;;;;;;;;;;5054963;28;20045;-67
2023/05/20 01:08:46;;;;;;;5.90;4.45;;;;;;;;;;5054956;28;20049;-67
2023/05/20 01:11:22;;;;;;;6.82;4.90;;;;;;;;;;5054855;28;20464;-67
2023/05/20 01:13:54;;;;;;;6.75;5.05;;;;;;;;;;5054966;28;20052;-67
2023/05/20 01:16:24;;;;;;;6.65;5.00;;;;;;;;;;5054896;28;20111;-67
2023/05/20 01:18:54;;;;;;;6.70;4.63;;;;;;;;;;5054761;28;20061;-67
2023/05/20 01:21:22;;;;;;;6.93;5.25;;;;;;;;;;5054818;28;20099;-67
2023/05/20 01:23:50;;;;;;;6.68;4.75;;;;;;;;;;5054317;28;20049;-67
2023/05/20 01:26:18;;;;;;;7.03;4.90;;;;;;;;;;5054863;28;20052;-67
2023/05/20 01:28:45;;;;;;;6.60;5.32;;;;;;;;;;5054451;28;20080;-68
2023/05/20 01:31:18;;;;;;;5.95;4.40;;;;;;;;;;5054341;28;20448;-67
2023/05/20 01:33:49;;;;;;;7.35;5.10;;;;;;;;;;5054283;28;20440;-67
2023/05/20 01:36:16;;;;;;;7.53;4.82;;;;;;;;;;5054508;28;20439;-67
2023/05/20 01:38:43;;;;;;;5.65;4.50;;;;;;;;;;5054378;28;20494;-67
2023/05/20 01:41:12;;;;;;;8.40;5.35;;;;;;;;;;5054182;28;20490;-67
2023/05/20 01:43:39;;;;;;;7.47;5.32;;;;;;;;;;5053953;28;20170;-67
2023/05/20 01:46:07;;;;;;;7.40;5.30;;;;;;;;;;5054176;28;20107;-67
2023/05/20 01:48:34;;;;;;;8.00;5.28;;;;;;;;;;5053940;28;20057;-67
2023/05/20 01:51:01;;;;;;;7.13;5.55;;;;;;;;;;5054035;28;20144;-67
2023/05/20 01:53:28;;;;;;;6.80;5.50;;;;;;;;;;5053781;28;20057;-67
2023/05/20 01:55:55;;;;;;;7.35;5.38;;;;;;;;;;5053968;28;20048;-67
2023/05/20 01:58:23;;;;;;;7.38;4.65;;;;;;;;;;5054058;28;20053;-67
2023/05/20 02:00:50;;;;;;;6.68;5.18;;;;;;;;;;5053974;28;20056;-67
2023/05/20 02:03:17;;;;;;;6.97;5.40;;;;;;;;;;5041067;28;20050;-67
2023/05/20 02:05:44;;;;;;;6.93;5.35;;;;;;;;;;5033865;28;20091;-67
2023/05/20 02:08:11;;;;;;;6.80;5.72;;;;;;;;;;5033243;28;20053;-67
2023/05/20 02:10:38;;;;;;;8.02;5.80;;;;;;;;;;5033582;28;20495;-67
2023/05/20 02:13:04;;;;;;;9.18;5.55;;;;;;;;;;5033593;28;20062;-67
2023/05/20 02:15:33;;;;;;;7.45;5.70;;;;;;;;;;5033874;28;20498;-66
2023/05/20 02:17:59;;;;;;;8.43;6.07;;;;;;;;;;5049056;28;20456;-68
2023/05/20 02:20:26;;;;;;;6.57;5.20;;;;;;;;;;5053789;28;20434;-68
2023/05/20 02:22:53;;;;;;;7.68;5.60;;;;;;;;;;5053450;28;20053;-68
2023/05/20 02:25:20;;;;;;;8.10;5.53;;;;;;;;;;5053669;28;20053;-68
2023/05/20 02:27:46;;;;;;;8.60;5.75;;;;;;;;;;5053300;28;20053;-68
2023/05/20 02:30:14;;;;;;;8.02;5.63;;;;;;;;;;5053973;28;20106;-68
2023/05/20 02:32:42;;;;;;;6.90;5.72;;;;;;;;;;5053375;28;20049;-67
2023/05/20 02:35:09;;;;;;;7.72;5.78;;;;;;;;;;5053495;28;20053;-68
2023/05/20 02:37:37;;;;;;;7.20;5.70;;;;;;;;;;5053370;28;20049;-68
2023/05/20 02:40:05;;;;;;;9.27;5.95;;;;;;;;;;5053284;28;20156;-68
2023/05/20 02:42:32;;;;;;;7.38;5.78;;;;;;;;;;5053106;28;20064;-68
2023/05/20 02:44:59;;;;;;;8.02;5.90;;;;;;;;;;5053360;28;20057;-68
2023/05/20 02:47:27;;;;;;;8.43;7.00;;;;;;;;;;5053066;28;20053;-68
2023/05/20 02:49:55;;;;;;;8.13;6.20;;;;;;;;;;5053087;28;20106;-67
2023/05/20 02:52:22;;;;;;;8.88;6.03;;;;;;;;;;5053259;28;20198;-67
2023/05/20 02:54:48;;;;;;;8.30;6.50;;;;;;;;;;5052955;28;20049;-68
2023/05/20 02:57:16;;;;;;;8.75;6.55;;;;;;;;;;5052920;28;20202;-68
2023/05/20 02:59:43;;;;;;;9.02;6.47;;;;;;;;;;5053067;28;20091;-68
2023/05/20 03:02:09;;;;;;;8.40;6.47;;;;;;;;;;5052819;28;20106;-68
2023/05/20 03:04:37;;;;;;;9.68;6.53;;;;;;;;;;5052791;28;20049;-68
2023/05/20 03:07:06;;;;;;;8.48;6.35;;;;;;;;;;5052914;28;20110;-67
2023/05/20 03:09:33;;;;;;;8.95;6.75;;;;;;;;;;5053000;28;20144;-68
2023/05/20 03:12:00;;;;;;;10.82;7.05;;;;;;;;;;5052602;28;20049;-68
2023/05/20 03:14:26;;;;;;;10.90;7.20;;;;;;;;;;5052927;28;20052;-68
2023/05/20 03:16:55;;;;;;;9.35;6.60;;;;;;;;;;5052557;28;20103;-68
2023/05/20 03:19:22;;;;;;;8.57;7.30;;;;;;;;;;5052596;28;20472;-68
2023/05/20 03:21:49;;;;;;;9.65;6.65;;;;;;;;;;5052397;28;20110;-68
2023/05/20 03:24:18;;;;;;;9.70;7.55;;;;;;;;;;5052613;28;20075;-67
2023/05/20 03:26:45;;;;;;;9.25;6.93;;;;;;;;;;5052352;28;20553;-68
2023/05/20 03:29:12;;;;;;;9.27;7.80;;;;;;;;;;5052250;28;20049;-68
2023/05/20 03:31:39;;;;;;;9.68;7.32;;;;;;;;;;5052150;28;20052;-67
2023/05/20 03:34:06;;;;;;;10.43;7.05;;;;;;;;;;5052580;28;20509;-68
2023/05/20 03:36:33;;;;;;;8.70;7.10;;;;;;;;;;5052667;28;20541;-68
2023/05/20 03:39:00;;;;;;;9.20;6.70;;;;;;;;;;5052136;28;20053;-68
2023/05/20 03:41:28;;;;;;;9.75;7.60;;;;;;;;;;5052197;28;20056;-68
2023/05/20 03:43:55;;;;;;;10.95;7.85;;;;;;;;;;5052125;28;20053;-67
2023/05/20 03:46:22;;;;;;;9.65;7.38;;;;;;;;;;5052118;28;20053;-68
2023/05/20 03:48:49;;;;;;;9.57;7.55;;;;;;;;;;5051871;28;20102;-68
2023/05/20 03:51:16;;;;;;;10.57;7.40;;;;;;;;;;5051989;28;20059;-67
2023/05/20 03:53:42;;;;;;;11.82;7.40;;;;;;;;;;5051910;28;20060;-68
2023/05/20 03:56:09;;;;;;;8.93;7.25;;;;;;;;;;5052096;28;20049;-68
2023/05/20 03:58:38;;;;;;;10.77;8.07;;;;;;;;;;5051975;28;20053;-67
2023/05/20 04:01:05;;;;;;;8.75;7.30;;;;;;;;;;5051746;28;20049;-67
2023/05/20 04:03:32;;;;;;;11.15;8.00;;;;;;;;;;5051822;28;20262;-67
2023/05/20 04:05:59;;;;;;;8.25;6.90;;;;;;;;;;5051867;28;20057;-66
2023/05/20 04:08:25;;;;;;;9.23;7.18;;;;;;;;;;5051580;28;20044;-67
2023/05/20 04:10:56;;;;;;;9.40;7.60;;;;;;;;;;5051787;28;20514;-67
2023/05/20 04:13:25;;;;;;;10.00;7.88;;;;;;;;;;5052035;28;20053;-66
2023/05/20 04:15:54;;;;;;;10.20;7.97;;;;;;;;;;5051745;28;20465;-67
2023/05/20 04:18:20;;;;;;;9.73;7.25;;;;;;;;;;5051571;28;20068;-67
2023/05/20 04:20:47;;;;;;;11.35;8.05;;;;;;;;;;5052049;28;20095;-67
2023/05/20 04:23:14;;;;;;;9.77;7.30;;;;;;;;;;5051492;28;20045;-68
2023/05/20 04:25:43;;;;;;;10.73;7.68;;;;;;;;;;5051426;28;20151;-67
2023/05/20 04:28:12;;;;;;;9.75;7.70;;;;;;;;;;5051485;28;20088;-67
2023/05/20 04:30:41;;;;;;;10.63;7.82;;;;;;;;;;5051147;28;20418;-67
2023/05/20 04:33:09;;;;;;;12.98;8.27;;;;;;;;;;5051308;28;20053;-67
2023/05/20 04:35:40;;;;;;;10.05;7.80;;;;;;;;;;5051593;28;20048;-68
2023/05/20 04:38:07;;;;;;;9.70;7.05;;;;;;;;;;5051329;28;20063;-67
2023/05/20 04:40:34;;;;;;;9.10;6.93;;;;;;;;;;5051447;28;20053;-67
2023/05/20 04:43:01;;;;;;;11.43;8.63;;;;;;;;;;5051301;28;20053;-68
2023/05/20 04:45:27;;;;;;;12.07;8.65;;;;;;;;;;5051272;28;20053;-67
2023/05/20 04:47:54;;;;;;;12.18;8.85;;;;;;;;;;5050912;28;20049;-67
2023/05/20 04:50:22;;;;;;;12.48;8.60;;;;;;;;;;5051420;28;20052;-67
2023/05/20 04:52:50;;;;;;;11.38;8.30;;;;;;;;;;5050986;28;20053;-67
2023/05/20 04:55:18;;;;;;;12.00;9.02;;;;;;;;;;5050993;28;20143;-67
2023/05/20 04:57:45;;;;;;;13.88;8.88;;;;;;;;;;5051283;28;20095;-67
2023/05/20 05:00:13;;;;;;;12.25;9.05;;;;;;;;;;5051011;28;20294;-67
2023/05/20 05:02:40;;;;;;;12.25;9.05;;;;;;;;;;5050895;28;20044;-67
2023/05/20 05:05:07;;;;;;;15.40;10.23;;;;;;;;;;5051273;28;20568;-67
2023/05/20 05:07:35;;;;;;;16.95;10.77;;;;;;;;;;5051288;28;20053;-67
2023/05/20 05:10:03;;;;;;;16.05;11.57;;;;;;;;;;5050971;28;20053;-67
2023/05/20 05:12:29;;;;;;;15.93;10.43;;;;;;;;;;5051090;28;20106;-66
2023/05/20 05:14:57;;;;;;;16.80;11.55;;;;;;;;;;5051083;28;20056;-68
2023/05/20 05:17:24;;;;;;;17.33;11.75;;;;;;;;;;5051119;28;20095;-67
2023/05/20 05:19:51;;;;;;;17.13;12.15;;;;;;;;;;5050997;28;20053;-68
2023/05/20 05:22:18;;;;;;;16.20;11.10;;;;;;;;;;5050790;28;20048;-67
2023/05/20 05:24:46;;;;;;;15.43;11.18;;;;;;;;;;5051006;28;20391;-67
2023/05/20 05:27:12;;;;;;;18.15;11.57;;;;;;;;;;5050965;28;20061;-67
2023/05/20 05:29:39;;;;;;;17.90;11.80;;;;;;;;;;5050779;28;20053;-68
2023/05/20 05:32:07;;;;;;;20.48;12.90;;;;;;;;;;5051315;28;20084;-68
2023/05/20 05:34:33;;;;;;;19.05;11.70;;;;;;;;;;5050898;28;20057;-67
2023/05/20 05:37:00;;;;;;;18.08;12.30;;;;;;;;;;5050772;28;20045;-68
2023/05/20 05:39:27;;;;;;;17.13;11.90;;;;;;;;;;5050697;28;20060;-68
2023/05/20 05:41:56;;;;;;;17.13;11.50;;;;;;;;;;5050801;28;20060;-67
2023/05/20 05:44:22;;;;;;;17.30;11.15;;;;;;;;;;5053857;28;20080;-67
2023/05/20 05:46:49;;;;;;;17.92;12.02;;;;;;;;;;5054432;28;20098;-68
2023/05/20 05:49:16;;;;;;;19.90;12.52;;;;;;;;;;5054345;28;20486;-68
2023/05/20 05:51:43;;;;;;;19.25;12.23;;;;;;;;;;5054167;28;20492;-68
2023/05/20 05:54:09;;;;;;;18.73;12.10;;;;;;;;;;5053985;28;20486;-67
2023/05/20 05:56:36;;;;;;;20.60;12.98;;;;;;;;;;5054346;28;20045;-68
2023/05/20 05:59:04;;;;;;;17.80;11.48;;;;;;;;;;5054070;28;20064;-67
2023/05/20 06:01:31;;;;;;;18.65;12.05;;;;;;;;;;5054199;28;20049;-68
2023/05/20 06:03:58;;;;;;;15.65;10.77;;;;;;;;;;5053966;28;20560;-68
2023/05/20 06:06:25;;;;;;;18.40;12.73;;;;;;;;;;5054488;28;20057;-68
2023/05/20 06:08:52;;;;;;;19.20;12.50;;;;;;;;;;5053786;28;20072;-67
2023/05/20 06:11:19;;;;;;;18.35;12.00;;;;;;;;;;5053959;28;20399;-67
2023/05/20 06:13:46;;;;;;;16.77;11.25;;;;;;;;;;5054100;28;20509;-68
2023/05/20 06:16:15;;;;;;;16.17;11.82;;;;;;;;;;5054060;28;20572;-68
2023/05/20 06:18:42;;;;;;;15.93;11.45;;;;;;;;;;5053596;28;20144;-68
2023/05/20 06:21:09;;;;;;;17.05;12.27;;;;;;;;;;5053760;28;20067;-68
2023/05/20 06:23:35;;;;;;;15.88;11.27;;;;;;;;;;5053421;28;20052;-68
2023/05/20 06:26:02;;;;;;;14.65;10.45;;;;;;;;;;5053698;28;20152;-68
2023/05/20 06:28:29;;;;;;;17.13;12.15;;;;;;;;;;5053459;28;20045;-68
2023/05/20 06:30:56;;;;;;;15.43;10.15;;;;;;;;;;5053772;28;20045;-68
2023/05/20 06:33:25;;;;;;;16.60;12.32;;;;;;;;;;5053373;28;20049;-68
2023/05/20 06:35:53;;;;;;;17.35;11.52;;;;;;;;;;5053654;28;20461;-68
2023/05/20 06:38:20;;;;;;;15.95;10.98;;;;;;;;;;5053468;28;20426;-68
2023/05/20 06:40:47;;;;;;;18.10;12.38;;;;;;;;;;5053152;28;20110;-68
2023/05/20 06:43:14;;;;;;;19.13;12.18;;;;;;;;;;5053124;28;20057;-68
2023/05/20 06:45:41;;;;;;;16.48;11.38;;;;;;;;;;5052951;28;20049;-68
2023/05/20 06:48:08;;;;;;;15.07;11.10;;;;;;;;;;5053289;28;20053;-68
2023/05/20 06:50:36;;;;;;;15.70;10.82;;;;;;;;;;5053059;28;20100;-68
2023/05/20 06:53:04;;;;;;;18.25;12.52;;;;;;;;;;5053262;28;20045;-68
2023/05/20 06:55:31;;;;;;;15.70;11.30;;;;;;;;;;5052713;28;20060;-68
2023/05/20 06:57:57;;;;;;;13.68;10.63;;;;;;;;;;5053428;28;20536;-67
2023/05/20 07:00:24;;;;;;;16.15;11.70;;;;;;;;;;5052912;28;20068;-68
2023/05/20 07:02:51;;;;;;;16.77;12.48;;;;;;;;;;5043756;28;20053;-68
2023/05/20 07:05:18;;;;;;;15.32;11.35;;;;;;;;;;5033211;28;20457;-67
2023/05/20 07:07:46;;;;;;;15.75;11.48;;;;;;;;;;5033322;28;20092;-67
2023/05/20 07:10:13;;;;;;;16.63;12.20;;;;;;;;;;5032885;28;20045;-67
2023/05/20 07:12:40;;;;;;;14.57;10.73;;;;;;;;;;5032621;28;20463;-68
2023/05/20 07:15:08;;;;;;;16.55;11.70;;;;;;;;;;5032765;28;20725;-67
2023/05/20 07:17:35;;;;;;;15.82;12.15;;;;;;;;;;5032529;28;20057;-68
2023/05/20 07:20:02;;;;;;;15.00;11.00;;;;;;;;;;5033004;28;20071;-67
2023/05/20 07:22:29;;;;;;;17.13;11.98;;;;;;;;;;5032311;28;20045;-67
2023/05/20 07:24:58;;;;;;;14.20;11.02;;;;;;;;;;5032507;28;20049;-67
2023/05/20 07:27:25;;;;;;;17.63;13.35;;;;;;;;;;5032729;28;20069;-67
2023/05/20 07:29:51;;;;;;;19.88;14.15;;;;;;;;;;5032382;28;20054;-67
2023/05/20 07:32:18;;;;;;;16.98;12.45;;;;;;;;;;5032451;28;20054;-68
2023/05/20 07:34:45;;;;;;;15.40;12.85;;;;;;;;;;5032562;28;20057;-66
2023/05/20 07:37:12;;;;;;;16.80;12.95;;;;;;;;;;5032726;28;20049;-67
2023/05/20 07:39:39;;;;;;;14.07;11.27;;;;;;;;;;5032093;28;20057;-67
2023/05/20 07:42:07;;;;;;;15.32;12.32;;;;;;;;;;5032081;28;20053;-67
2023/05/20 07:44:34;;;;;;;15.18;12.38;;;;;;;;;;5032654;28;20053;-67
2023/05/20 07:47:01;;;;;;;14.27;12.18;;;;;;;;;;5032399;28;20057;-68
2023/05/20 07:49:28;;;;;;;14.63;12.43;;;;;;;;;;5032201;28;20119;-67
2023/05/20 07:51:54;;;;;;;14.10;11.80;;;;;;;;;;5032197;28;20057;-67
2023/05/20 07:54:21;;;;;;;15.05;11.20;;;;;;;;;;5032409;28;20088;-68
2023/05/20 07:56:48;;;;;;;13.18;11.13;;;;;;;;;;5032091;28;20069;-68
2023/05/20 07:59:16;;;;;;;13.15;10.80;;;;;;;;;;5032237;28;20119;-67
2023/05/20 08:01:43;;;;;;;13.48;10.82;;;;;;;;;;5032090;28;20495;-68
2023/05/20 08:04:09;;;;;;;11.27;9.43;;;;;;;;;;5051898;28;20049;-67
2023/05/20 08:06:36;;;;;;;13.35;9.48;;;;;;;;;;5051108;28;20293;-68
2023/05/20 08:09:03;;;;;;;12.52;9.35;;;;;;;;;;5051738;28;20062;-68
2023/05/20 08:11:30;;;;;;;11.38;9.10;;;;;;;;;;5051912;28;20461;-68
2023/05/20 08:13:57;;;;;;;11.63;8.32;;;;;;;;;;5051646;28;20045;-68
2023/05/20 08:16:25;;;;;;;10.85;8.82;;;;;;;;;;5051818;28;20045;-68
2023/05/20 08:18:52;;;;;;;10.13;7.72;;;;;;;;;;5051901;28;20118;-69
2023/05/20 08:21:20;;;;;;;16.58;10.60;;;;;;;;;;5051943;28;20135;-67
2023/05/20 08:23:47;;;;;;;11.20;8.30;;;;;;;;;;5051870;28;20064;-67
2023/05/20 08:26:14;;;;;;;11.10;8.80;;;;;;;;;;5051461;28;20107;-67
2023/05/20 08:28:41;;;;;;;11.02;8.77;;;;;;;;;;5051822;28;20537;-67
2023/05/20 08:31:08;;;;;;;10.73;8.93;;;;;;;;;;5051475;28;20453;-67
2023/05/20 08:33:36;;;;;;;10.20;8.13;;;;;;;;;;5051616;28;20103;-68
2023/05/20 08:36:03;;;;;;;9.68;8.18;;;;;;;;;;5051764;28;20049;-67
2023/05/20 08:38:30;;;;;;;11.40;9.73;;;;;;;;;;5051606;28;20110;-67
2023/05/20 08:40:57;;;;;;;9.82;8.15;;;;;;;;;;5051396;28;20175;-67
2023/05/20 08:43:24;;;;;;;11.25;8.70;;;;;;;;;;5051621;28;20049;-67
2023/05/20 08:45:52;;;;;;;11.25;8.90;;;;;;;;;;5051375;28;20572;-67
2023/05/20 08:48:19;;;;;;;8.70;6.97;;;;;;;;;;5051505;28;20052;-68
2023/05/20 08:50:50;;;;;;;13.40;9.55;;;;;;;;;;5051170;28;20055;-67
2023/05/20 08:53:17;;;;;;;10.00;7.50;;;;;;;;;;5051387;28;20379;-67
2023/05/20 08:55:48;;;;;;;10.50;7.60;;;;;;;;;;5051321;28;20049;-67
2023/05/20 08:58:16;;;;;;;10.15;7.70;;;;;;;;;;5051395;28;20060;-66
2023/05/20 09:00:43;;;;;;;9.40;6.75;;;;;;;;;;5051387;28;20529;-68
2023/05/20 09:03:10;;;;;;;8.45;6.75;;;;;;;;;;5051181;28;20049;-68
2023/05/20 09:05:36;;;;;;;8.05;6.38;;;;;;;;;;5051233;28;20061;-67
2023/05/20 09:08:09;;;;;;;9.95;7.28;;;;;;;;;;5051100;28;20103;-68
2023/05/20 09:10:36;;;;;;;9.15;6.78;;;;;;;;;;5050923;28;20056;-68
2023/05/20 09:13:04;;;;;;;8.45;6.72;;;;;;;;;;5051075;28;20537;-68
2023/05/20 09:15:31;;;;;;;8.07;5.68;;;;;;;;;;5051397;28;20053;-68
2023/05/20 09:18:00;;;;;;;9.77;6.18;;;;;;;;;;5053498;28;20053;-69
2023/05/20 09:20:29;;;;;;;7.40;5.68;;;;;;;;;;5054676;28;20148;-68
2023/05/20 09:23:00;;;;;;;7.57;6.25;;;;;;;;;;5054498;28;20064;-67
2023/05/20 09:25:28;;;;;;;7.97;5.72;;;;;;;;;;5054821;28;20413;-68
2023/05/20 09:27:55;;;;;;;7.22;5.55;;;;;;;;;;5054877;28;20072;-68
2023/05/20 09:30:23;;;;;;;6.53;4.80;;;;;;;;;;5055000;28;20049;-68
2023/05/20 09:32:54;;;;;;;6.57;5.25;;;;;;;;;;5054361;28;20049;-69
2023/05/20 09:35:22;;;;;;;7.20;5.53;;;;;;;;;;5054783;28;20052;-68
2023/05/20 09:37:51;;;;;;;6.80;4.90;;;;;;;;;;5054900;28;20087;-68
2023/05/20 09:40:20;;;;;;;5.70;4.40;;;;;;;;;;5054555;28;20134;-68
2023/05/20 09:42:53;;;;;;;7.47;5.63;;;;;;;;;;5054391;28;20053;-68
2023/05/20 09:45:20;;;;;;;8.65;4.93;;;;;;;;;;5054702;28;20490;-67
2023/05/20 09:47:48;;;;;;;8.20;4.93;;;;;;;;;;5054316;28;20064;-67
2023/05/20 09:50:16;;;;;;;6.40;4.80;;;;;;;;;;5054093;28;20041;-68
2023/05/20 09:52:44;;;;;;;8.75;5.60;;;;;;;;;;5053978;28;20414;-68
2023/05/20 09:55:12;;;;;;;6.13;4.68;;;;;;;;;;5054171;28;20490;-68
2023/05/20 09:57:38;;;;;;;5.95;4.47;;;;;;;;;;5053952;28;20159;-68
2023/05/20 10:00:09;;;;;;;6.90;4.90;;;;;;;;;;5054351;28;20053;-68
2023/05/20 10:02:36;;;;;;;6.90;4.82;;;;;;;;;;5046978;28;20077;-68
2023/05/20 10:05:05;;;;;;;6.65;4.63;;;;;;;;;;5034286;28;20050;-68
2023/05/20 10:07:56;;;;;;;6.25;4.50;;;;;;;;;;5034322;28;20111;-68
2023/05/20 10:10:33;;;;;;;7.43;5.28;;;;;;;;;;5034497;28;20049;-68
2023/05/20 10:13:11;;;;;;;6.40;4.60;;;;;;;;;;5034197;28;20053;-68
2023/05/20 10:15:49;;;;;;;6.90;4.85;;;;;;;;;;5034067;28;20057;-68
2023/05/20 10:18:27;;;;;;;7.80;5.18;;;;;;;;;;5034270;28;20506;-68
2023/05/20 10:20:54;;;;;;;6.15;4.30;;;;;;;;;;5033848;28;20061;-66
2023/05/20 10:23:23;;;;;;;7.47;5.38;;;;;;;;;;5033781;28;20107;-68
2023/05/20 10:25:54;;;;;;;6.78;5.07;;;;;;;;;;5034523;28;20053;-68
2023/05/20 10:28:40;;;;;;;6.85;4.72;;;;;;;;;;5033672;28;20053;-67
2023/05/20 10:31:18;;;;;;;6.00;5.05;;;;;;;;;;5033850;28;20495;-68
2023/05/20 10:33:46;;;;;;;6.57;4.60;;;;;;;;;;5034438;28;20453;-68
2023/05/20 10:36:24;;;;;;;6.35;4.97;;;;;;;;;;5034609;28;20487;-68
2023/05/20 10:38:54;;;;;;;6.60;4.82;;;;;;;;;;5034354;28;20056;-68
2023/05/20 10:41:23;;;;;;;7.47;5.32;;;;;;;;;;5033864;28;20049;-68
2023/05/20 10:44:00;;;;;;;5.65;4.65;;;;;;;;;;5033655;28;20076;-68
2023/05/20 10:46:28;;;;;;;7.15;5.35;;;;;;;;;;5105996;22;20412;-76
2023/05/20 10:48:55;;;;;;;6.15;4.93;;;;;;;;;;5116373;28;20081;-76
2023/05/20 10:51:22;;;;;;;7.38;4.70;;;;;;;;;;5115254;28;20079;-76
2023/05/20 10:53:53;;;;;;;6.68;4.65;;;;;;;;;;5116083;28;20156;-76
2023/05/20 10:56:21;;;;;;;6.15;4.28;;;;;;;;;;5116198;28;20043;-78
2023/05/20 10:58:48;;;;;;;6.07;4.13;;;;;;;;;;5116004;28;20048;-76
2023/05/20 11:01:16;;;;;;;5.80;4.38;;;;;;;;;;5116443;28;20048;-77
2023/05/20 11:03:47;;;;;;;6.05;4.22;;;;;;;;;;5115902;28;20122;-78
2023/05/20 11:06:14;;;;;;;7.13;3.70;;;;;;;;;;5116341;28;20044;-78
2023/05/20 11:08:41;;;;;;;5.47;3.58;;;;;;;;;;5116838;28;20048;-78
2023/05/20 11:11:08;;;;;;;6.00;3.22;;;;;;;;;;5116935;28;20056;-76
2023/05/20 11:13:35;;;;;;;6.70;4.38;;;;;;;;;;5115292;28;20043;-77
2023/05/20 11:16:03;;;;;;;6.63;4.10;;;;;;;;;;5115066;28;20075;-77
2023/05/20 11:18:30;;;;;;;5.40;4.10;;;;;;;;;;5115010;28;20044;-77
2023/05/20 11:20:59;;;;;;;5.97;3.88;;;;;;;;;;5114782;28;20096;-77
2023/05/20 11:23:27;;;;;;;6.25;4.38;;;;;;;;;;5114879;28;20047;-77
2023/05/20 11:25:55;;;;;;;6.93;4.10;;;;;;;;;;5114655;28;20047;-76
2023/05/20 11:28:22;;;;;;;5.78;3.85;;;;;;;;;;5114279;28;20075;-76
2023/05/20 11:30:51;;;;;;;5.38;3.60;;;;;;;;;;5114643;28;20510;-76
2023/05/20 11:33:18;;;;;;;5.72;4.13;;;;;;;;;;5114590;28;20099;-76
2023/05/20 11:35:46;;;;;;;8.55;4.20;;;;;;;;;;5117846;28;20131;-76
2023/05/20 11:38:15;;;;;;;6.20;4.32;;;;;;;;;;5126716;28;20047;-76
2023/05/20 11:40:45;;;;;;;7.00;4.22;;;;;;;;;;5120844;28;20085;-76
2023/05/20 11:43:13;;;;;;;5.35;3.97;;;;;;;;;;5115358;28;20116;-76
2023/05/20 11:45:41;;;;;;;6.25;4.22;;;;;;;;;;5114877;28;20052;-76
2023/05/20 11:48:08;;;;;;;5.22;3.92;;;;;;;;;;5114564;28;20075;-77
2023/05/20 11:50:38;;;;;;;7.72;4.53;;;;;;;;;;5114835;28;20043;-77
2023/05/20 11:53:06;;;;;;;5.45;4.07;;;;;;;;;;5114138;28;20078;-78
2023/05/20 11:55:35;;;;;;;5.72;4.28;;;;;;;;;;5114256;28;20340;-77
2023/05/20 11:58:03;;;;;;;6.30;4.40;;;;;;;;;;5114429;28;20127;-76
2023/05/20 12:00:30;;;;;;;5.97;3.90;;;;;;;;;;5115129;28;20043;-76
2023/05/20 12:02:56;;;;;;;6.18;3.97;;;;;;;;;;5105945;28;20059;-77
2023/05/20 12:05:23;;;;;;;5.65;4.35;;;;;;;;;;5094081;28;20040;-77
2023/05/20 12:07:49;;;;;;;7.10;5.20;;;;;;;;;;5093307;28;20059;-77
2023/05/20 12:10:16;;;;;;;7.60;5.72;;;;;;;;;;5093797;28;20409;-77
2023/05/20 12:12:45;;;;;;;5.90;4.55;;;;;;;;;;5093253;28;20056;-77
2023/05/20 12:15:12;;;;;;;6.43;5.07;;;;;;;;;;5092914;28;20052;-77
2023/05/20 12:17:46;;;;;;;8.50;5.60;;;;;;;;;;5093783;28;20064;-76
2023/05/20 12:20:15;;;;;;;6.28;4.97;;;;;;;;;;5093621;28;20079;-76
2023/05/20 12:22:42;;;;;;;8.07;5.07;;;;;;;;;;5092972;28;20056;-77
2023/05/20 12:25:10;;;;;;;6.72;5.32;;;;;;;;;;5093230;28;20135;-77
2023/05/20 12:27:37;;;;;;;7.72;5.80;;;;;;;;;;5093360;28;20083;-77
2023/05/20 12:30:08;;;;;;;8.63;4.78;;;;;;;;;;5092838;28;20427;-77
2023/05/20 12:32:35;;;;;;;6.80;5.22;;;;;;;;;;5092202;28;20414;-77
2023/05/20 12:35:02;;;;;;;7.65;4.70;;;;;;;;;;5093276;28;20150;-77
2023/05/20 12:37:28;;;;;;;6.97;5.40;;;;;;;;;;5092590;28;20093;-77
2023/05/20 12:39:55;;;;;;;6.68;5.75;;;;;;;;;;5092269;28;20481;-77
2023/05/20 12:42:21;;;;;;;8.00;6.40;;;;;;;;;;5092000;28;20486;-77
2023/05/20 12:44:48;;;;;;;7.43;6.63;;;;;;;;;;5092072;28;20074;-78
2023/05/20 12:47:16;;;;;;;7.88;6.20;;;;;;;;;;5092267;28;20119;-77
2023/05/20 12:49:43;;;;;;;8.70;6.72;;;;;;;;;;5092089;28;20056;-78
2023/05/20 12:52:10;;;;;;;8.98;6.35;;;;;;;;;;5092973;28;20080;-77
2023/05/20 12:54:36;;;;;;;7.60;6.63;;;;;;;;;;5096543;28;20048;-78
2023/05/20 12:57:04;;;;;;;9.43;6.78;;;;;;;;;;5096098;28;20131;-77
2023/05/20 12:59:30;;;;;;;8.77;6.28;;;;;;;;;;5096001;28;20090;-77
2023/05/20 13:01:57;;;;;;;9.00;6.85;;;;;;;;;;5097183;28;20135;-77
2023/05/20 13:04:25;;;;;;;7.35;6.22;;;;;;;;;;5116416;28;20074;-77
2023/05/20 13:06:52;;;;;;;8.20;6.30;;;;;;;;;;5116224;28;20052;-77
2023/05/20 13:09:19;;;;;;;7.75;5.80;;;;;;;;;;5116150;28;20135;-78
2023/05/20 13:11:46;;;;;;;6.95;5.65;;;;;;;;;;5116114;28;20448;-78
2023/05/20 13:14:12;;;;;;;8.73;6.00;;;;;;;;;;5116662;28;20055;-78
2023/05/20 13:16:39;;;;;;;7.18;6.43;;;;;;;;;;5116146;28;20130;-77
2023/05/20 13:19:06;;;;;;;7.88;6.50;;;;;;;;;;5116146;28;20051;-78
2023/05/20 13:21:34;;;;;;;7.93;6.13;;;;;;;;;;5116787;28;20069;-78
2023/05/20 13:24:01;;;;;;;8.45;6.78;;;;;;;;;;5116612;28;20083;-78
2023/05/20 13:26:28;;;;;;;9.13;6.82;;;;;;;;;;5117184;28;20071;-77
2023/05/20 13:28:54;;;;;;;8.73;7.10;;;;;;;;;;5115859;28;20080;-77
2023/05/20 13:31:21;;;;;;;7.97;6.13;;;;;;;;;;5115836;28;20047;-77
2023/05/20 13:33:48;;;;;;;7.90;5.88;;;;;;;;;;5115817;28;20134;-78
2023/05/20 13:36:15;;;;;;;8.68;5.80;;;;;;;;;;5116040;28;20136;-78
2023/05/20 13:38:43;;;;;;;7.25;6.47;;;;;;;;;;5116226;28;20043;-78
2023/05/20 13:41:09;;;;;;;8.77;6.65;;;;;;;;;;5115670;28;20130;-77
2023/05/20 13:43:36;;;;;;;7.70;5.80;;;;;;;;;;5115602;28;20070;-78
2023/05/20 13:46:02;;;;;;;8.55;7.13;;;;;;;;;;5115262;28;20703;-77
2023/05/20 13:48:29;;;;;;;7.82;6.78;;;;;;;;;;5115676;28;20047;-77
2023/05/20 13:50:56;;;;;;;8.68;7.03;;;;;;;;;;5114997;28;20590;-77
2023/05/20 13:53:22;;;;;;;9.05;7.60;;;;;;;;;;5115138;28;20043;-76
2023/05/20 13:55:50;;;;;;;9.27;7.15;;;;;;;;;;5114954;28;20051;-76
2023/05/20 13:58:17;;;;;;;8.57;7.00;;;;;;;;;;5115387;28;20130;-77
2023/05/20 14:00:44;;;;;;;8.75;7.25;;;;;;;;;;5116563;28;20139;-76
2023/05/20 14:03:11;;;;;;;9.63;7.22;;;;;;;;;;5102488;28;20125;-77
2023/05/20 14:05:37;;;;;;;10.57;7.63;;;;;;;;;;5094488;28;20044;-77
2023/05/20 14:08:05;;;;;;;11.38;8.18;;;;;;;;;;5094639;28;20079;-77
2023/05/20 14:10:31;;;;;;;8.23;7.30;;;;;;;;;;5094304;28;20052;-77
2023/05/20 14:13:00;;;;;;;9.63;7.97;;;;;;;;;;5094167;28;20058;-77
2023/05/20 14:15:29;;;;;;;9.75;7.60;;;;;;;;;;5094411;28;20052;-77
2023/05/20 14:17:56;;;;;;;9.57;7.53;;;;;;;;;;5094332;28;20560;-77
2023/05/20 14:20:23;;;;;;;8.60;7.60;;;;;;;;;;5094513;28;20485;-77
2023/05/20 14:22:50;;;;;;;9.95;8.15;;;;;;;;;;5094774;28;20125;-77
2023/05/20 14:25:16;;;;;;;8.48;7.57;;;;;;;;;;5095160;28;20098;-77
2023/05/20 14:27:43;;;;;;;9.07;7.43;;;;;;;;;;5096015;28;20040;-77
2023/05/20 14:30:12;;;;;;;9.52;7.43;;;;;;;;;;5105005;28;20173;-78
2023/05/20 14:32:39;;;;;;;10.13;7.65;;;;;;;;;;5107789;28;20126;-78
2023/05/20 14:35:07;;;;;;;10.15;8.10;;;;;;;;;;5101282;28;20072;-79
2023/05/20 14:37:45;;;;;;;8.95;7.32;;;;;;;;;;5100194;28;20105;-81